Startpagina
METAR-TAF:

METAR-TAF

Vliegvelden :

Luchthaven Cadjehoun

Cotonou, Benin

breedte: 06-21N, lengte: 002-23E, hoogte: 5 m

Actueel weer

Dit bericht is 2 uur en het 0 minuten geleden gemaakt, om 01:00 UTC
Wind 3 kt uit het noordwesten
Temperatuur 26°C
Vochtigheid 89%
Druk 1011 hPa
Zicht: 4000 m
verspreid stof

METAR: DBBB 290100Z 31003KT 4000 DU NSC 26/24 Q1011 NOSIG

Tijdstip: 04:00 (03:00 UTC)

Verwachting

Dit bericht is 4 uur en het 0 minuten geleden gemaakt, om 23:00 UTC
Verwachting geldig van 29 om 00 UTC tot 30 om 06 UTC
Wind 10 kt uit het zuidzuidwesten
Zicht: 4000 m
verspreid stof
Kans 30%
van 29 om 02 UTC tot 29 om 09 UTC
Wind 4 kt uit het noordnoordoosten
Zicht: 2500 m
nevel

TAF: DBBB 282300Z 2900/3006 20010KT 4000 DU NSC PROB30 2902/2909 02004KT 2500 BR

Waarnemingen en weersverwachtingen van meer dan 4000 vliegvelden (METAR en TAF).

De beschikbare stations zijn de gele en rode punten op de kaart.

Ga met uw muis naar het station om de naam te zien.

Klik dan om waarnemingen en weersverwachtingen te zien.

kaart wijzigen: klik op de groene knoppen met een zwart kruis om in te zoomen, op de groene knop met een streepje om uit te zoomen of op de groene pijlen voor aangrenzende kaarten.


METAR-TAF: